Time;durP1;ratioP1;P1;durP2;ratioP2;P2;SDS_P1;SDS_P2;PMS_P1;PMS_P2;Temp;Humidity;BMP_temperature;BMP_pressure;BME280_temperature;BME280_humidity;BME280_pressure;Samples;Min_cycle;Max_cycle;Signal;HPM_P1;HPM_P2
2022/03/22 00:01:47;;;;;;;15.27;7.40;;;;;;;8.29;66.63;102948.69;5013815;28;20032;-82
2022/03/22 00:04:13;;;;;;;14.93;7.32;;;;;;;8.25;66.62;102959.81;5013616;28;20029;-83
2022/03/22 00:06:38;;;;;;;15.23;7.00;;;;;;;8.22;66.52;102959.72;5012455;28;20034;-82
2022/03/22 00:09:03;;;;;;;15.67;7.40;;;;;;;8.19;65.71;102964.78;5013971;28;20045;-82
2022/03/22 00:11:28;;;;;;;16.00;7.63;;;;;;;8.12;65.92;102958.56;5012324;28;20045;-82
2022/03/22 00:13:54;;;;;;;14.85;6.72;;;;;;;8.07;67.10;102957.56;5012788;28;20030;-82
2022/03/22 00:16:20;;;;;;;15.48;7.20;;;;;;;8.00;65.92;102963.38;5013383;28;20029;-82
2022/03/22 00:18:47;;;;;;;16.00;7.57;;;;;;;7.97;65.89;102965.88;5012912;28;20026;-82
2022/03/22 00:21:12;;;;;;;;;;;;;;;7.93;66.72;102959.75;5013422;28;20500;-82
2022/03/22 00:23:37;;;;;;;17.20;8.17;;;;;;;7.84;66.59;102955.16;5013170;28;19913;-82
2022/03/22 00:26:03;;;;;;;15.40;7.27;;;;;;;7.83;66.53;102958.59;5012290;28;20132;-82
2022/03/22 00:28:30;;;;;;;16.88;7.55;;;;;;;7.76;66.77;102951.50;5012373;28;20120;-82
2022/03/22 00:30:56;;;;;;;15.73;7.00;;;;;;;7.75;66.17;102952.31;5013576;28;20441;-82
2022/03/22 00:33:22;;;;;;;18.75;9.15;;;;;;;7.73;67.14;102966.91;5009866;28;20061;-82
2022/03/22 00:35:48;;;;;;;17.60;8.00;;;;;;;7.67;68.01;102970.16;5012871;28;20026;-82
2022/03/22 00:38:16;;;;;;;19.88;9.40;;;;;;;7.61;67.67;102966.50;5013147;28;20026;-83
2022/03/22 00:40:43;;;;;;;18.67;9.13;;;;;;;7.56;67.85;102968.94;5012566;28;20029;-82
2022/03/22 00:43:09;;;;;;;18.38;8.93;;;;;;;7.55;68.39;102970.66;5013235;28;20084;-82
2022/03/22 00:45:37;;;;;;;18.92;9.40;;;;;;;7.53;68.13;102969.75;5012904;28;20420;-82
2022/03/22 00:48:05;;;;;;;19.83;9.80;;;;;;;7.51;67.14;102973.09;5012380;28;20022;-82
2022/03/22 00:50:34;;;;;;;19.70;9.40;;;;;;;7.46;68.97;102975.53;5012805;28;20030;-82
2022/03/22 00:53:01;;;;;;;19.38;9.50;;;;;;;7.39;67.61;102969.28;5012956;28;20026;-82
2022/03/22 00:55:27;;;;;;;20.13;9.77;;;;;;;7.37;67.48;102962.31;5012397;28;20165;-82
2022/03/22 00:57:53;;;;;;;18.00;8.98;;;;;;;7.36;67.96;102968.31;5013132;28;20057;-82
2022/03/22 01:00:20;;;;;;;18.73;8.65;;;;;;;7.33;67.27;102968.19;5012743;28;20048;-82
2022/03/22 01:02:49;;;;;;;19.27;9.43;;;;;;;7.31;68.13;102973.31;5012040;28;20049;-82
2022/03/22 01:05:17;;;;;;;20.20;9.77;;;;;;;7.29;67.77;102972.41;5012742;28;20026;-82
2022/03/22 01:07:45;;;;;;;20.05;9.80;;;;;;;7.28;68.16;102967.19;5012547;28;20041;-82
2022/03/22 01:10:12;;;;;;;19.58;9.40;;;;;;;7.29;68.64;102972.41;5012352;28;20029;-82
2022/03/22 01:12:39;;;;;;;;;;;;;;;7.26;67.97;102973.19;5013146;28;20026;-82
2022/03/22 01:15:09;;;;;;;20.60;10.13;;;;;;;7.22;71.22;102968.72;5012187;28;19914;-82
2022/03/22 01:17:35;;;;;;;18.80;8.88;;;;;;;7.15;68.60;102968.50;5012584;28;20033;-82
2022/03/22 01:20:00;;;;;;;18.13;8.67;;;;;;;7.13;68.47;102971.00;5012837;28;20410;-82
2022/03/22 01:22:25;;;;;;;21.73;10.70;;;;;;;7.18;68.62;102972.06;5011945;28;20030;-82
2022/03/22 01:24:54;;;;;;;21.30;11.00;;;;;;;7.18;68.60;102973.75;5013015;28;20026;-82
2022/03/22 01:27:21;;;;;;;21.52;11.55;;;;;;;7.16;70.11;102971.13;5012612;28;20117;-82
2022/03/22 01:29:47;;;;;;;;;;;;;;;7.17;69.82;102977.16;5012469;28;20029;-82
2022/03/22 01:32:12;;;;;;;19.50;9.80;;;;;;;7.14;69.57;102974.50;5012214;28;20373;-82
2022/03/22 01:34:38;;;;;;;21.27;10.80;;;;;;;7.10;69.61;102979.53;5012321;28;20021;-82
2022/03/22 01:37:04;;;;;;;20.47;10.13;;;;;;;7.10;69.14;102976.97;5013143;28;20021;-82
2022/03/22 01:39:29;;;;;;;19.70;9.90;;;;;;;7.11;68.87;102968.41;5016356;28;20061;-82
2022/03/22 01:41:54;;;;;;;19.52;9.93;;;;;;;7.14;69.32;102977.06;5016486;28;20018;-82
2022/03/22 01:44:19;;;;;;;18.90;8.90;;;;;;;7.11;68.94;102970.97;5015220;28;20029;-82
2022/03/22 01:46:45;;;;;;;19.27;9.53;;;;;;;7.07;69.40;102973.41;5016695;28;20033;-82
2022/03/22 01:49:13;;;;;;;18.05;8.48;;;;;;;7.06;69.52;102971.66;5018879;28;20034;-82
2022/03/22 01:51:40;;;;;;;16.55;7.50;;;;;;;7.04;69.88;102973.28;5018273;28;20109;-82
2022/03/22 01:54:06;;;;;;;;;;;;;;;6.99;70.38;102973.13;5018286;28;20033;-82
2022/03/22 01:56:31;;;;;;;15.50;7.35;;;;;;;6.94;70.05;102973.00;5016292;28;19917;-82
2022/03/22 01:58:57;;;;;;;18.30;8.05;;;;;;;6.96;68.79;102973.03;5015579;28;20022;-82
2022/03/22 02:06:52;;;;;;;18.90;8.77;;;;;;;6.93;69.73;102968.66;5015918;28;20402;-82
2022/03/22 02:09:18;;;;;;;19.13;9.30;;;;;;;6.95;69.16;102963.53;5015807;28;20069;-82
2022/03/22 02:11:43;;;;;;;17.73;8.40;;;;;;;6.93;69.91;102963.50;5015301;28;20528;-82
2022/03/22 02:14:11;;;;;;;16.80;8.05;;;;;;;6.91;70.36;102961.69;5015678;28;20034;-82
2022/03/22 02:16:37;;;;;;;16.27;7.28;;;;;;;6.88;69.31;102964.16;5015844;28;20025;-82
2022/03/22 02:19:05;;;;;;;15.40;6.77;;;;;;;6.84;70.89;102959.69;5015187;28;20026;-82
2022/03/22 02:21:31;;;;;;;14.60;6.78;;;;;;;6.79;70.51;102959.53;5015377;28;20026;-83
2022/03/22 02:23:57;;;;;;;14.87;6.90;;;;;;;6.75;69.75;102957.72;5015615;28;20022;-82
2022/03/22 02:26:24;;;;;;;16.00;7.27;;;;;;;6.75;70.42;102960.28;5014127;28;20080;-82
2022/03/22 02:28:53;;;;;;;14.95;6.72;;;;;;;6.72;69.74;102960.16;5015376;28;20084;-82
2022/03/22 02:31:20;;;;;;;15.10;6.93;;;;;;;6.72;69.99;102965.34;5015040;28;20034;-82
2022/03/22 02:33:45;;;;;;;;;;;;;;;6.73;71.37;102960.22;5015293;28;20080;-82
2022/03/22 02:36:11;;;;;;;15.40;7.17;;;;;;;6.72;71.86;102966.19;5015462;28;19913;-82
2022/03/22 02:38:36;;;;;;;16.37;7.20;;;;;;;6.67;71.69;102957.44;5015148;28;20033;-82
2022/03/22 02:41:03;;;;;;;16.00;6.67;;;;;;;6.69;70.42;102960.06;5014519;28;20034;-82
2022/03/22 02:43:28;;;;;;;14.32;6.95;;;;;;;6.71;69.87;102961.00;5014916;28;20061;-82
2022/03/22 02:45:53;;;;;;;15.45;7.30;;;;;;;6.73;70.10;102957.63;5014908;28;20061;-82
2022/03/22 02:48:19;;;;;;;15.32;7.03;;;;;;;6.75;70.04;102960.28;5014161;28;20022;-82
2022/03/22 02:50:44;;;;;;;14.07;6.60;;;;;;;6.77;70.91;102961.19;5014851;28;20423;-82
2022/03/22 02:53:09;;;;;;;16.97;7.67;;;;;;;6.75;69.60;102957.72;5015139;28;20030;-82
2022/03/22 02:55:36;;;;;;;17.20;7.70;;;;;;;6.71;71.32;102961.00;5013521;28;20513;-82
2022/03/22 02:58:01;;;;;;;16.48;7.63;;;;;;;6.62;71.16;102962.44;5013853;28;20026;-82
2022/03/22 03:00:27;;;;;;;16.33;7.20;;;;;;;6.56;70.79;102961.34;5014060;28;20077;-81
2022/03/22 03:02:55;;;;;;;15.60;7.22;;;;;;;6.48;70.29;102968.78;5014901;28;20022;-82
2022/03/22 03:05:22;;;;;;;16.33;7.75;;;;;;;6.47;69.63;102967.03;5014404;28;20041;-82
2022/03/22 03:07:48;;;;;;;;;;;;;;;6.44;70.60;102969.50;5014432;28;20068;-82
2022/03/22 03:10:13;;;;;;;16.03;7.40;;;;;;;6.43;70.00;102970.31;5014673;28;20341;-82
2022/03/22 03:12:39;;;;;;;15.65;7.22;;;;;;;6.39;70.28;102961.59;5014442;28;20034;-82
2022/03/22 03:15:07;;;;;;;15.13;7.13;;;;;;;6.39;70.58;102964.19;5013990;28;20028;-82
2022/03/22 03:17:33;;;;;;;15.07;7.25;;;;;;;6.38;69.85;102965.00;5014245;28;20029;-82
2022/03/22 03:19:58;;;;;;;15.37;7.10;;;;;;;6.33;72.22;102966.53;5014579;28;20476;-82
2022/03/22 03:22:24;;;;;;;15.48;7.07;;;;;;;6.28;70.99;102963.81;5013617;28;20032;-82
2022/03/22 03:24:49;;;;;;;15.23;6.47;;;;;;;6.27;70.65;102967.19;5013938;28;20040;-82
2022/03/22 03:27:15;;;;;;;15.77;7.10;;;;;;;6.26;70.41;102972.28;5014280;28;20024;-82
2022/03/22 03:29:40;;;;;;;15.98;7.15;;;;;;;6.27;70.05;102976.63;5013551;28;20038;-82
2022/03/22 03:32:06;;;;;;;17.38;7.78;;;;;;;6.24;70.98;102967.06;5014342;28;20104;-82
2022/03/22 03:34:31;;;;;;;15.27;6.88;;;;;;;6.23;70.89;102961.88;5013855;28;20028;-82
2022/03/22 03:36:56;;;;;;;14.33;6.60;;;;;;;6.20;71.84;102972.94;5013110;28;20026;-83
2022/03/22 03:39:22;;;;;;;15.02;6.93;;;;;;;6.17;73.00;102975.41;5013920;28;20494;-82
2022/03/22 03:41:53;;;;;;;16.60;7.50;;;;;;;6.11;72.49;102986.38;5014097;28;20028;-82
2022/03/22 03:47:11;;;;;;;16.00;7.45;;;;;;;6.07;70.99;102987.06;4993101;28;20041;-82
2022/03/22 03:49:38;;;;;;;15.70;7.72;;;;;;;6.08;71.82;102987.97;5013638;28;20113;-82
2022/03/22 03:52:08;;;;;;;16.75;7.78;;;;;;;6.09;72.29;102992.28;5013260;28;20036;-82
2022/03/22 03:54:34;;;;;;;15.73;7.22;;;;;;;6.12;73.05;102987.25;5013484;28;20029;-82
2022/03/22 03:56:59;;;;;;;15.47;7.00;;;;;;;6.10;71.44;102992.34;5013016;28;20859;-82
2022/03/22 03:59:25;;;;;;;15.35;7.22;;;;;;;6.11;71.24;102994.13;5013217;28;20033;-83
2022/03/22 04:01:50;;;;;;;17.30;8.40;;;;;;;6.10;72.31;102999.19;5014087;28;20478;-82
2022/03/22 04:04:16;;;;;;;17.20;7.90;;;;;;;6.06;72.50;102994.75;5012436;28;20026;-82
2022/03/22 04:06:41;;;;;;;16.10;7.75;;;;;;;6.09;70.62;102998.31;5013613;28;20400;-82
2022/03/22 04:09:06;;;;;;;18.00;8.82;;;;;;;6.00;71.77;102995.41;5012747;28;20504;-82
2022/03/22 04:11:32;;;;;;;15.52;7.50;;;;;;;5.99;72.85;102994.50;5012643;28;20045;-82
2022/03/22 04:13:57;;;;;;;13.70;6.63;;;;;;;5.94;72.81;102995.13;5013717;28;20050;-82
2022/03/22 04:16:22;;;;;;;15.35;6.75;;;;;;;5.91;72.01;102995.88;5013258;28;20033;-82
2022/03/22 04:18:48;;;;;;;13.27;6.07;;;;;;;5.90;71.97;103003.56;5012874;28;20034;-82
2022/03/22 04:21:14;;;;;;;17.85;8.48;;;;;;;5.90;72.00;103004.44;5013319;28;20026;-82
2022/03/22 04:23:39;;;;;;;15.95;7.55;;;;;;;5.90;72.18;103008.72;5012637;28;20030;-82
2022/03/22 04:26:10;;;;;;;16.52;7.93;;;;;;;5.88;72.45;102999.22;5012808;28;20034;-82
2022/03/22 04:34:03;;;;;;;15.57;7.50;;;;;;;5.93;71.89;103001.09;5012811;28;20045;-82
2022/03/22 04:36:29;;;;;;;17.23;7.57;;;;;;;5.88;72.11;102993.19;5013145;28;20029;-83
2022/03/22 04:38:54;;;;;;;15.77;7.45;;;;;;;5.90;71.30;102998.41;5012870;28;20390;-82
2022/03/22 04:41:20;;;;;;;15.95;7.45;;;;;;;5.89;71.63;102997.53;5012705;28;20551;-83
2022/03/22 04:43:46;;;;;;;15.07;7.28;;;;;;;5.89;71.16;102989.78;5013315;28;20030;-82
2022/03/22 04:46:11;;;;;;;16.05;7.18;;;;;;;5.86;71.11;102992.22;5012377;28;20036;-82
2022/03/22 04:48:36;;;;;;;14.15;6.40;;;;;;;5.84;72.47;103002.50;5012463;28;20052;-82
2022/03/22 04:56:46;;;;;;;13.18;6.35;;;;;;;5.58;72.37;103006.63;5012465;28;20394;-82
2022/03/22 04:59:13;;;;;;;14.15;6.55;;;;;;;5.56;71.98;103004.00;5013159;28;20061;-82
2022/03/22 05:01:38;;;;;;;;;;;;;;;5.56;73.12;103010.81;5012247;28;20497;-82
2022/03/22 05:04:03;;;;;;;15.73;6.90;;;;;;;5.52;73.56;103006.34;5012666;28;19927;-82
2022/03/22 05:06:35;;;;;;;14.90;6.55;;;;;;;5.51;71.98;103012.34;5012536;28;20026;-82
2022/03/22 05:09:02;;;;;;;14.00;6.40;;;;;;;5.50;72.89;103016.59;5011951;28;20493;-83
2022/03/22 05:11:27;;;;;;;12.65;6.13;;;;;;;5.49;72.20;103014.84;5012384;28;20174;-82
2022/03/22 05:13:54;;;;;;;14.93;6.30;;;;;;;5.49;72.54;103014.84;5017000;28;20037;-82
2022/03/22 05:16:19;;;;;;;12.68;5.90;;;;;;;5.46;72.75;103012.13;5015967;28;20053;-82
2022/03/22 05:18:45;;;;;;;13.85;6.15;;;;;;;5.45;74.13;103020.72;5016796;28;20124;-83
2022/03/22 05:21:10;;;;;;;12.80;5.93;;;;;;;5.42;74.20;103023.16;5016147;28;20014;-82
2022/03/22 05:23:35;;;;;;;10.50;5.38;;;;;;;5.41;74.02;103029.13;5016119;28;20954;-82
2022/03/22 05:26:01;;;;;;;12.20;6.00;;;;;;;5.36;74.81;103034.06;5016432;28;20041;-82
2022/03/22 05:28:26;;;;;;;11.97;5.57;;;;;;;5.33;73.43;103025.34;5015871;28;20783;-83
2022/03/22 05:30:51;;;;;;;12.43;5.88;;;;;;;5.33;72.82;103025.34;5016466;28;20116;-82
2022/03/22 05:33:17;;;;;;;12.52;5.63;;;;;;;5.32;72.76;103033.88;5016042;28;20136;-82
2022/03/22 05:35:42;;;;;;;13.38;5.90;;;;;;;5.36;72.99;103036.66;5016040;28;20033;-82
2022/03/22 05:38:07;;;;;;;13.45;6.00;;;;;;;5.37;73.55;103032.38;5016261;28;20391;-82
2022/03/22 05:40:32;;;;;;;10.88;5.10;;;;;;;5.37;72.77;103034.94;5015895;28;20119;-82
2022/03/22 05:42:58;;;;;;;10.85;5.20;;;;;;;5.35;73.89;103031.41;5015464;28;20034;-82
2022/03/22 05:45:29;;;;;;;10.27;4.90;;;;;;;5.32;74.50;103037.31;5016134;28;20022;-82
2022/03/22 05:47:54;;;;;;;9.80;4.88;;;;;;;5.32;74.58;103045.06;5015904;28;20121;-82
2022/03/22 05:50:20;;;;;;;11.52;5.40;;;;;;;5.30;74.75;103038.94;5015119;28;20125;-82
2022/03/22 05:52:47;;;;;;;10.02;4.85;;;;;;;5.29;74.36;103044.06;5016295;28;20026;-82
2022/03/22 05:55:13;;;;;;;11.38;5.40;;;;;;;5.25;75.06;103033.63;5016598;28;20433;-82
2022/03/22 05:57:38;;;;;;;10.63;5.18;;;;;;;5.24;74.22;103037.00;5015304;28;20030;-81
2022/03/22 06:00:06;;;;;;;10.73;4.95;;;;;;;5.25;74.18;103037.91;5015665;28;20458;-81
2022/03/22 06:02:31;;;;;;;11.38;5.40;;;;;;;5.24;73.36;103039.56;5015292;28;20037;-81
2022/03/22 06:04:56;;;;;;;10.93;5.03;;;;;;;5.28;73.26;103043.19;5015257;28;20026;-81
2022/03/22 06:07:22;;;;;;;11.88;5.68;;;;;;;5.29;74.69;103049.19;5015608;28;20030;-81
2022/03/22 06:09:47;;;;;;;13.93;6.13;;;;;;;5.30;76.27;103050.97;5015450;28;20021;-81
2022/03/22 06:12:16;;;;;;;13.43;6.18;;;;;;;5.31;74.26;103048.44;5015402;28;20037;-81
2022/03/22 06:14:41;;;;;;;17.52;7.88;;;;;;;5.36;74.64;103048.63;5015978;28;20030;-81
2022/03/22 06:17:07;;;;;;;15.93;7.55;;;;;;;5.41;73.65;103050.59;5015661;28;20018;-81
2022/03/22 06:19:32;;;;;;;17.83;7.72;;;;;;;5.47;74.80;103054.25;5014203;28;20048;-81
2022/03/22 06:21:57;;;;;;;16.00;7.07;;;;;;;5.51;74.18;103058.72;5016300;28;20030;-81
2022/03/22 06:24:22;;;;;;;14.43;6.95;;;;;;;5.57;74.29;103056.38;5014659;28;20073;-81
2022/03/22 06:26:48;;;;;;;17.27;7.45;;;;;;;5.64;75.68;103058.38;5014987;28;20037;-81
2022/03/22 06:29:13;;;;;;;15.85;7.35;;;;;;;5.72;73.24;103050.97;5015481;28;20022;-81
2022/03/22 06:31:41;;;;;;;17.50;8.00;;;;;;;5.81;74.16;103058.19;5014279;28;20045;-81
2022/03/22 06:34:06;;;;;;;16.08;7.13;;;;;;;5.90;73.93;103062.84;5015282;28;20025;-81
2022/03/22 06:36:31;;;;;;;16.08;7.00;;;;;;;5.97;73.48;103063.13;5015108;28;20048;-81
2022/03/22 06:38:57;;;;;;;13.57;6.38;;;;;;;6.02;73.59;103055.63;5014426;28;20038;-81
2022/03/22 06:41:22;;;;;;;12.52;5.90;;;;;;;6.13;73.97;103056.03;5014846;28;20030;-81
2022/03/22 06:43:47;;;;;;;12.13;6.00;;;;;;;6.20;74.55;103065.75;5014759;28;20034;-81
2022/03/22 06:46:13;;;;;;;15.68;6.97;;;;;;;6.27;73.20;103065.19;5014403;28;20129;-81
2022/03/22 06:48:38;;;;;;;16.77;8.05;;;;;;;6.36;74.94;103062.06;5014882;28;20560;-81
2022/03/22 06:51:03;;;;;;;15.23;7.50;;;;;;;6.49;74.98;103072.03;5015086;28;20030;-81
2022/03/22 06:53:28;;;;;;;20.10;9.25;;;;;;;6.92;74.91;103079.63;5013868;28;20057;-81
2022/03/22 06:55:54;;;;;;;19.27;9.20;;;;;;;7.78;72.00;103063.53;5014466;28;20489;-81
2022/03/22 06:58:21;;;;;;;21.02;10.43;;;;;;;8.72;71.78;103075.00;5014384;28;20041;-81
2022/03/22 07:00:48;;;;;;;19.35;9.38;;;;;;;9.58;70.81;103072.09;5014441;28;20036;-81
2022/03/22 07:03:13;;;;;;;19.45;9.45;;;;;;;10.34;66.96;103066.06;5015132;28;20482;-82
2022/03/22 07:05:41;;;;;;;19.60;9.90;;;;;;;11.12;66.37;103073.66;5015079;28;20084;-83
2022/03/22 07:08:09;;;;;;;17.88;8.77;;;;;;;11.55;63.60;103072.63;5014298;28;20041;-82
2022/03/22 07:10:34;;;;;;;17.70;8.50;;;;;;;11.87;62.86;103080.09;5012901;28;20080;-80
2022/03/22 07:13:04;;;;;;;16.93;8.17;;;;;;;12.10;62.82;103071.78;5014086;28;20434;-80
2022/03/22 07:15:38;;;;;;;16.10;8.05;;;;;;;12.09;59.75;103077.84;5013507;28;20057;-80
2022/03/22 07:18:05;;;;;;;19.38;9.82;;;;;;;11.86;61.07;103073.16;5014238;28;20057;-80
2022/03/22 07:20:31;;;;;;;18.75;8.80;;;;;;;11.39;61.21;103080.19;5014112;28;20049;-80
2022/03/22 07:22:56;;;;;;;17.95;8.80;;;;;;;10.86;62.82;103085.28;5014000;28;20032;-80
2022/03/22 07:25:22;;;;;;;17.37;8.20;;;;;;;10.45;63.43;103081.00;5014143;28;20045;-80
2022/03/22 07:27:48;;;;;;;15.03;7.67;;;;;;;10.10;63.93;103079.34;5013701;28;20022;-81
2022/03/22 07:30:14;;;;;;;16.75;8.20;;;;;;;9.87;64.34;103087.47;5014604;28;20025;-81
2022/03/22 07:32:40;;;;;;;16.37;7.97;;;;;;;9.67;65.09;103086.13;5013831;28;20042;-80
2022/03/22 07:35:30;;;;;;;16.30;7.90;;;;;;;9.50;65.46;103086.59;5012750;28;20040;-84
2022/03/22 07:37:53;;;;;;;15.98;7.32;;;;;;;9.36;65.89;103091.41;5013402;28;20056;-83
2022/03/22 07:40:24;;;;;;;15.70;7.47;;;;;;;9.25;66.33;103088.53;5013795;28;20021;-83
2022/03/22 07:42:49;;;;;;;16.13;7.45;;;;;;;9.16;66.39;103082.22;5012652;28;20061;-81
2022/03/22 07:45:15;;;;;;;15.07;7.20;;;;;;;9.20;66.58;103091.84;5013944;28;20494;-80
2022/03/22 07:47:41;;;;;;;17.30;8.20;;;;;;;9.23;66.64;103089.34;5013804;28;20057;-79
2022/03/22 07:53:07;;;;;;;22.48;12.98;;;;;;;9.26;66.12;103086.81;5014354;28;20125;-78
2022/03/22 07:55:37;;;;;;;24.08;13.80;;;;;;;9.30;66.64;103090.34;5013637;28;20028;-78
2022/03/22 07:58:05;;;;;;;22.63;12.75;;;;;;;9.36;66.38;103085.34;5013144;28;20026;-79
2022/03/22 08:00:31;;;;;;;25.13;14.18;;;;;;;9.43;66.12;103095.94;5013775;28;20101;-78
2022/03/22 08:02:59;;;;;;;24.42;14.82;;;;;;;9.50;65.73;103094.38;5012939;28;20458;-78
2022/03/22 08:05:26;;;;;;;24.30;13.65;;;;;;;9.58;65.78;103091.94;5013543;28;20021;-78
2022/03/22 08:07:53;;;;;;;22.17;12.90;;;;;;;9.65;66.02;103093.88;5012961;28;20527;-79
2022/03/22 08:10:19;;;;;;;20.80;11.20;;;;;;;9.74;65.13;103093.19;5010524;28;20057;-78
2022/03/22 08:12:44;;;;;;;21.07;11.07;;;;;;;9.82;65.75;103093.38;5014231;28;20030;-82
2022/03/22 08:15:10;;;;;;;20.43;10.73;;;;;;;9.92;65.71;103094.50;5014639;28;20022;-83
2022/03/22 08:17:37;;;;;;;21.70;11.50;;;;;;;10.06;65.09;103100.88;5012916;28;20141;-84
2022/03/22 08:20:04;;;;;;;;;;;;;;;10.13;64.90;103101.91;5014341;28;20046;-86
2022/03/22 08:22:29;;;;;;;23.05;13.60;;;;;;;10.22;64.62;103096.03;5013286;28;19916;-84
2022/03/22 08:24:54;;;;;;;24.37;14.03;;;;;;;10.32;63.86;103098.88;5011981;28;20108;-84
2022/03/22 08:27:20;;;;;;;24.67;14.23;;;;;;;10.42;64.14;103093.91;5013285;28;20026;-84
2022/03/22 08:29:45;;;;;;;23.33;13.67;;;;;;;10.55;63.62;103095.94;5011808;28;20022;-83
2022/03/22 08:32:10;;;;;;;26.70;15.30;;;;;;;10.63;63.54;103093.50;5012533;28;20409;-84
2022/03/22 08:34:35;;;;;;;26.97;16.30;;;;;;;10.78;62.27;103105.91;5013225;28;20042;-84
2022/03/22 08:37:03;;;;;;;24.53;14.17;;;;;;;10.84;64.06;103097.38;5013554;28;20014;-84
2022/03/22 08:39:31;;;;;;;23.27;13.68;;;;;;;10.97;63.59;103108.03;5011792;28;20033;-84
2022/03/22 08:41:56;;;;;;;22.83;13.35;;;;;;;11.08;63.51;103102.16;5013115;28;20061;-84
2022/03/22 08:44:21;;;;;;;23.03;12.60;;;;;;;11.17;62.38;103102.31;5012873;28;20064;-84
2022/03/22 08:46:47;;;;;;;22.00;12.40;;;;;;;11.29;62.54;103101.69;5012586;28;20475;-84
2022/03/22 08:49:12;;;;;;;22.50;13.10;;;;;;;11.47;62.29;103110.66;5013325;28;20022;-84
2022/03/22 08:51:40;;;;;;;26.60;16.13;;;;;;;11.62;60.86;103104.81;5012967;28;20034;-84
2022/03/22 08:54:11;;;;;;;23.75;14.23;;;;;;;11.70;61.84;103101.50;5012396;28;20061;-84
2022/03/22 08:56:37;;;;;;;25.00;15.70;;;;;;;11.83;60.91;103094.75;5013056;28;20084;-84
2022/03/22 08:59:03;;;;;;;25.03;15.87;;;;;;;11.97;60.94;103097.59;5013187;28;20026;-84
2022/03/22 09:01:28;;;;;;;25.93;16.00;;;;;;;12.10;58.27;103095.22;5012284;28;20105;-84
2022/03/22 09:06:38;;;;;;;25.77;15.73;;;;;;;12.36;58.86;103106.00;5011982;28;20111;-84
2022/03/22 09:09:05;;;;;;;27.60;17.57;;;;;;;12.45;58.47;103102.59;5013294;28;20026;-84
2022/03/22 09:11:30;;;;;;;;;;;;;;;12.58;59.20;103095.84;5013295;28;20085;-84
2022/03/22 09:13:55;;;;;;;26.30;15.90;;;;;;;12.73;58.10;103101.22;5012360;28;20258;-84
2022/03/22 09:16:21;;;;;;;24.43;14.83;;;;;;;12.83;56.90;103090.03;5012923;28;20069;-84
2022/03/22 09:18:47;;;;;;;24.48;14.45;;;;;;;12.97;53.95;103099.75;5012787;28;20037;-85
2022/03/22 09:21:12;;;;;;;23.33;13.50;;;;;;;13.09;56.95;103096.44;5012084;28;20022;-85
2022/03/22 09:23:40;;;;;;;22.57;12.77;;;;;;;13.23;56.22;103093.94;5012388;28;20061;-85
2022/03/22 09:26:06;;;;;;;22.17;12.23;;;;;;;13.36;55.07;103094.91;5013016;28;20081;-85
2022/03/22 09:28:31;;;;;;;24.07;13.73;;;;;;;13.55;53.66;103091.66;5011809;28;20122;-85
2022/03/22 09:30:57;;;;;;;27.73;17.03;;;;;;;13.63;52.49;103091.69;5013005;28;20069;-85
2022/03/22 09:33:25;;;;;;;25.97;15.93;;;;;;;13.68;54.80;103079.59;5012699;28;20073;-85
2022/03/22 09:35:53;;;;;;;25.98;15.80;;;;;;;13.81;53.58;103079.66;5011409;28;20026;-82
2022/03/22 09:38:19;;;;;;;24.67;15.25;;;;;;;13.95;54.39;103093.69;5012759;28;20071;-83
2022/03/22 09:40:44;;;;;;;22.47;13.27;;;;;;;14.11;54.41;103085.94;5013026;28;20029;-82
2022/03/22 09:43:11;;;;;;;23.87;13.83;;;;;;;14.24;53.00;103086.91;5012420;28;20045;-82
2022/03/22 09:45:37;;;;;;;;;;;;;;;14.34;50.65;103091.31;5012872;28;20037;-82
2022/03/22 09:48:03;;;;;;;;;;;;;;;14.40;52.18;103091.31;5024094;28;19913;-82
2022/03/22 09:53:15;;;;;;;23.02;13.13;;;;;;;14.62;52.34;103088.78;5012954;28;20041;-82
2022/03/22 09:55:41;;;;;;;21.95;12.65;;;;;;;14.73;51.81;103087.13;5007022;28;20030;-83
2022/03/22 09:58:07;;;;;;;19.80;10.77;;;;;;;14.89;48.36;103084.56;5012931;28;20018;-82
2022/03/22 10:00:36;;;;;;;22.67;13.75;;;;;;;15.01;47.70;103086.31;5014809;28;20030;-82
2022/03/22 10:03:02;;;;;;;24.52;14.00;;;;;;;15.08;47.74;103088.09;5015024;28;20022;-82
2022/03/22 10:05:28;;;;;;;23.27;13.37;;;;;;;15.21;51.31;103081.13;5013927;28;20018;-83
2022/03/22 10:08:08;;;;;;;22.23;12.18;;;;;;;15.36;51.27;103082.88;5015448;28;20026;-83
2022/03/22 10:10:34;;;;;;;22.20;12.27;;;;;;;15.47;47.71;103078.53;5014633;28;20026;-84
2022/03/22 10:13:02;;;;;;;27.42;16.40;;;;;;;15.51;43.71;103071.53;5015845;28;20022;-84
2022/03/22 10:15:31;;;;;;;28.13;17.80;;;;;;;15.46;45.66;103075.91;5015670;28;20537;-85
2022/03/22 10:18:04;;;;;;;28.58;18.27;;;;;;;15.53;46.24;103069.78;5015574;28;20072;-84
2022/03/22 10:20:30;;;;;;;25.83;16.17;;;;;;;15.69;47.19;103075.88;5015960;28;20029;-85
2022/03/22 10:22:59;;;;;;;25.53;15.47;;;;;;;15.84;43.76;103068.06;5015976;28;20026;-85
2022/03/22 10:25:25;;;;;;;24.08;14.20;;;;;;;15.95;47.02;103070.63;5014612;28;20038;-84
2022/03/22 10:27:55;;;;;;;20.75;11.38;;;;;;;16.12;48.28;103065.34;5015708;28;20029;-84
2022/03/22 10:30:21;;;;;;;18.90;9.90;;;;;;;16.30;44.61;103061.78;5015628;28;20035;-84
2022/03/22 10:32:53;;;;;;;21.17;11.30;;;;;;;16.42;46.33;103060.00;5014940;28;20046;-84
2022/03/22 10:35:21;;;;;;;21.02;11.40;;;;;;;16.58;46.20;103066.03;5014889;28;20034;-85
2022/03/22 10:37:49;;;;;;;27.35;16.40;;;;;;;16.54;39.15;103056.47;5014548;28;20021;-85
2022/03/22 10:40:29;;;;;;;25.67;14.75;;;;;;;16.58;43.26;103061.69;5015342;28;20041;-84
2022/03/22 10:42:58;;;;;;;23.92;14.27;;;;;;;16.74;44.15;103061.59;5015815;28;20057;-85
2022/03/22 10:45:25;;;;;;;23.15;13.50;;;;;;;16.85;42.09;103054.53;5014183;28;20386;-84
2022/03/22 10:47:50;;;;;;;25.30;14.93;;;;;;;17.00;42.43;103056.19;5015195;28;20359;-84
2022/03/22 10:50:15;;;;;;;25.37;15.60;;;;;;;17.05;40.38;103057.06;5014858;28;20026;-84
2022/03/22 10:52:59;;;;;;;24.47;14.90;;;;;;;17.12;41.84;103052.63;5014350;28;20018;-84
2022/03/22 10:55:27;;;;;;;23.92;13.20;;;;;;;17.25;43.70;103054.28;5014806;28;20109;-82
2022/03/22 10:57:55;;;;;;;21.38;12.25;;;;;;;17.39;44.25;103054.16;5010348;28;20041;-83
2022/03/22 11:00:21;;;;;;;22.17;12.48;;;;;;;17.56;43.00;103047.91;5013841;28;20490;-83
2022/03/22 11:02:49;;;;;;;20.75;11.15;;;;;;;17.68;41.94;103049.53;5013720;28;20445;-84
2022/03/22 11:05:18;;;;;;;23.25;13.82;;;;;;;17.73;38.72;103047.72;5014668;28;20026;-84
2022/03/22 11:07:45;;;;;;;25.17;15.05;;;;;;;17.67;40.99;103046.03;5013219;28;20108;-84
2022/03/22 11:10:10;;;;;;;;;;;;;;;17.69;41.52;103044.25;5015385;28;20068;-84
2022/03/22 11:12:37;;;;;;;24.33;14.33;;;;;;;17.82;40.16;103049.38;5014401;28;20375;-84
2022/03/22 11:15:05;;;;;;;23.02;13.55;;;;;;;17.98;41.08;103044.84;5014282;28;20029;-84
2022/03/22 11:17:34;;;;;;;25.65;14.88;;;;;;;18.07;38.48;103036.84;5014806;28;20497;-84
2022/03/22 11:20:01;;;;;;;23.00;13.48;;;;;;;18.14;42.10;103035.91;5013865;28;20418;-84
2022/03/22 11:22:28;;;;;;;26.25;16.20;;;;;;;18.27;36.90;103041.88;5014292;28;20044;-85
2022/03/22 11:25:05;;;;;;;28.75;17.05;;;;;;;18.17;38.89;103043.75;5014461;28;20370;-84
2022/03/22 11:27:31;;;;;;;28.27;17.05;;;;;;;18.11;35.62;103035.09;5013633;28;20022;-85
2022/03/22 11:29:56;;;;;;;26.47;15.53;;;;;;;18.16;37.37;103035.88;5014194;28;20351;-84
2022/03/22 11:35:13;;;;;;;24.70;14.05;;;;;;;18.47;39.16;103040.72;5014060;28;20481;-84
2022/03/22 11:37:38;;;;;;;21.80;12.18;;;;;;;18.61;40.21;103032.69;5014107;28;20030;-84
2022/03/22 11:42:57;;;;;;;22.98;12.43;;;;;;;18.97;38.96;103033.91;4994119;28;20351;-85
2022/03/22 11:45:24;;;;;;;21.48;11.95;;;;;;;19.17;38.89;103022.19;5002779;28;20041;-85
2022/03/22 11:47:54;;;;;;;24.50;13.90;;;;;;;19.29;38.89;103023.75;5013962;28;20022;-84
2022/03/22 11:50:22;;;;;;;23.30;13.63;;;;;;;19.40;38.58;103023.53;5013475;28;20018;-84
2022/03/22 11:52:54;;;;;;;24.15;13.75;;;;;;;19.38;36.77;103014.78;5013758;28;20478;-84